Time;durP1;ratioP1;P1;durP2;ratioP2;P2;SDS_P1;SDS_P2;PMS_P1;PMS_P2;Temp;Humidity;BMP_temperature;BMP_pressure;BME280_temperature;BME280_humidity;BME280_pressure;Samples;Min_cycle;Max_cycle;Signal;HPM_P1;HPM_P2
2022/05/25 00:00:00;;;;;;;9.38;7.43;;;;;;;;;;5064575;28;20028;-86
2022/05/25 00:02:26;;;;;;;9.00;7.10;;;;;;;;;;5056489;28;20045;-86
2022/05/25 00:04:53;;;;;;;12.05;7.95;;;;;;;;;;5058025;28;20039;-87
2022/05/25 00:07:19;;;;;;;11.25;7.93;;;;;;;;;;5063700;28;20028;-86
2022/05/25 00:09:46;;;;;;;9.80;7.47;;;;;;;;;;5068373;28;20484;-87
2022/05/25 00:12:13;;;;;;;10.45;7.55;;;;;;;;;;5057428;28;20021;-87
2022/05/25 00:14:39;;;;;;;11.55;7.45;;;;;;;;;;5064947;28;20029;-86
2022/05/25 00:17:05;;;;;;;8.70;6.82;;;;;;;;;;5059336;28;20035;-85
2022/05/25 00:22:15;;;;;;;9.35;7.18;;;;;;;;;;5065576;28;20098;-87
2022/05/25 00:24:40;;;;;;;8.80;6.97;;;;;;;;;;5055063;28;20457;-85
2022/05/25 00:27:06;;;;;;;12.20;7.15;;;;;;;;;;5064757;28;20028;-86
2022/05/25 00:29:31;;;;;;;10.60;8.20;;;;;;;;;;5056558;28;20037;-86
2022/05/25 00:31:57;;;;;;;11.52;7.60;;;;;;;;;;5060761;28;20043;-85
2022/05/25 00:34:23;;;;;;;11.02;7.28;;;;;;;;;;5062090;28;20033;-86
2022/05/25 00:36:48;;;;;;;8.75;7.45;;;;;;;;;;5060084;28;20133;-86
2022/05/25 00:39:13;;;;;;;10.88;7.65;;;;;;;;;;5065567;28;20028;-86
2022/05/25 00:41:39;;;;;;;9.02;7.30;;;;;;;;;;5065529;28;20047;-86
2022/05/25 00:44:05;;;;;;;11.68;7.50;;;;;;;;;;5058851;28;20044;-86
2022/05/25 00:46:32;;;;;;;11.60;7.97;;;;;;;;;;5068265;28;20028;-86
2022/05/25 00:49:10;;;;;;;11.57;8.23;;;;;;;;;;5062645;28;20051;-86
2022/05/25 00:51:41;;;;;;;11.35;7.90;;;;;;;;;;5059342;28;20055;-87
2022/05/25 00:54:13;;;;;;;10.07;7.35;;;;;;;;;;5061561;28;20025;-87
2022/05/25 00:56:45;;;;;;;11.63;8.18;;;;;;;;;;5065570;28;20036;-87
2022/05/25 00:59:14;;;;;;;11.55;8.55;;;;;;;;;;5072981;28;20017;-86
2022/05/25 01:01:41;;;;;;;9.50;8.50;;;;;;;;;;5063607;28;20577;-85
2022/05/25 01:04:07;;;;;;;13.38;9.25;;;;;;;;;;5058796;28;20029;-86
2022/05/25 01:07:28;;;;;;;10.15;8.55;;;;;;;;;;5069548;28;20040;-86
2022/05/25 01:10:34;;;;;;;10.35;8.02;;;;;;;;;;5013431;28;20029;-86
2022/05/25 01:13:05;;;;;;;11.77;8.27;;;;;;;;;;5068656;28;20041;-87
2022/05/25 01:15:56;;;;;;;10.73;8.75;;;;;;;;;;5062427;28;20086;-86
2022/05/25 01:18:50;;;;;;;11.13;8.38;;;;;;;;;;5064120;28;20075;-87
2022/05/25 01:21:32;;;;;;;14.82;8.73;;;;;;;;;;5060808;28;20083;-87
2022/05/25 01:24:25;;;;;;;12.10;8.07;;;;;;;;;;5062261;28;20021;-88
2022/05/25 01:27:15;;;;;;;10.07;7.63;;;;;;;;;;5062068;28;20403;-85
2022/05/25 01:29:50;;;;;;;11.20;9.02;;;;;;;;;;5069555;28;20089;-86
2022/05/25 01:32:28;;;;;;;10.02;7.88;;;;;;;;;;5065649;28;20052;-86
2022/05/25 01:35:02;;;;;;;13.25;7.38;;;;;;;;;;5070591;28;20032;-85
2022/05/25 01:38:23;;;;;;;12.63;8.82;;;;;;;;;;5064688;28;20024;-86
2022/05/25 01:41:18;;;;;;;11.73;8.20;;;;;;;;;;5042404;28;20059;-88
2022/05/25 01:43:50;;;;;;;12.30;8.98;;;;;;;;;;5066866;28;20028;-87
2022/05/25 01:46:27;;;;;;;11.07;8.38;;;;;;;;;;5061952;28;20380;-86
2022/05/25 01:48:55;;;;;;;12.05;8.20;;;;;;;;;;5062428;28;20108;-86
2022/05/25 01:51:29;;;;;;;10.63;8.18;;;;;;;;;;5066944;28;20147;-86
2022/05/25 01:53:58;;;;;;;9.88;7.70;;;;;;;;;;5067282;28;20444;-88
2022/05/25 01:56:26;;;;;;;12.40;8.27;;;;;;;;;;5061550;28;20031;-86
2022/05/25 01:58:56;;;;;;;10.35;9.27;;;;;;;;;;5062104;28;20035;-87
2022/05/25 02:01:22;;;;;;;12.20;8.43;;;;;;;;;;5065522;28;20052;-88
2022/05/25 02:07:13;;;;;;;11.10;9.23;;;;;;;;;;5062868;28;20040;-87
2022/05/25 02:09:45;;;;;;;11.43;8.85;;;;;;;;;;5065743;28;20040;-87
2022/05/25 02:12:44;;;;;;;11.55;9.00;;;;;;;;;;5069439;28;20476;-87
2022/05/25 02:15:43;;;;;;;10.97;8.97;;;;;;;;;;5067018;28;20507;-90
2022/05/25 02:18:34;;;;;;;14.23;8.32;;;;;;;;;;5060717;28;20029;-86
2022/05/25 02:21:28;;;;;;;15.10;10.68;;;;;;;;;;5068565;28;20392;-88
2022/05/25 02:24:14;;;;;;;12.88;8.73;;;;;;;;;;5061794;28;20028;-87
2022/05/25 02:26:48;;;;;;;13.23;10.57;;;;;;;;;;5058273;28;20021;-86
2022/05/25 02:29:21;;;;;;;16.98;9.70;;;;;;;;;;5086318;28;20047;-86
2022/05/25 02:31:54;;;;;;;14.63;10.18;;;;;;;;;;5067606;28;20067;-86
2022/05/25 02:34:21;;;;;;;14.40;10.77;;;;;;;;;;5061220;28;20037;-88
2022/05/25 02:36:48;;;;;;;13.55;8.95;;;;;;;;;;5063851;28;20097;-86
2022/05/25 02:39:15;;;;;;;11.90;9.75;;;;;;;;;;5061227;28;20330;-87
2022/05/25 02:41:49;;;;;;;12.98;9.57;;;;;;;;;;5064046;28;20025;-86
2022/05/25 02:44:15;;;;;;;11.52;9.35;;;;;;;;;;5065056;28;20025;-87
2022/05/25 02:46:41;;;;;;;10.93;9.73;;;;;;;;;;5066160;28;20527;-86
2022/05/25 02:49:06;;;;;;;11.88;9.43;;;;;;;;;;5063551;28;20207;-86
2022/05/25 02:51:32;;;;;;;16.08;9.45;;;;;;;;;;5060649;28;20032;-87
2022/05/25 02:53:57;;;;;;;11.25;9.20;;;;;;;;;;5067452;28;20518;-87
2022/05/25 02:56:23;;;;;;;15.13;10.30;;;;;;;;;;5059501;28;20503;-87
2022/05/25 02:58:48;;;;;;;13.70;9.32;;;;;;;;;;5069114;28;20033;-85
2022/05/25 03:01:14;;;;;;;12.93;8.70;;;;;;;;;;5073291;28;20074;-86
2022/05/25 03:03:39;;;;;;;11.45;9.40;;;;;;;;;;5074618;28;20032;-87
2022/05/25 03:06:06;;;;;;;11.10;9.40;;;;;;;;;;5063971;28;20028;-86
2022/05/25 03:08:33;;;;;;;12.13;8.63;;;;;;;;;;5065926;28;20024;-86
2022/05/25 03:10:58;;;;;;;11.88;9.15;;;;;;;;;;5069663;28;20021;-87
2022/05/25 03:13:24;;;;;;;14.35;9.10;;;;;;;;;;5064021;28;20033;-87
2022/05/25 03:15:50;;;;;;;14.73;9.55;;;;;;;;;;5063585;28;20075;-87
2022/05/25 03:18:15;;;;;;;14.25;9.38;;;;;;;;;;5064046;28;20411;-86
2022/05/25 03:20:41;;;;;;;11.70;8.82;;;;;;;;;;5061255;28;20056;-85
2022/05/25 03:23:07;;;;;;;13.70;9.20;;;;;;;;;;5061768;28;20025;-85
2022/05/25 03:25:32;;;;;;;18.75;10.13;;;;;;;;;;5061721;28;20710;-87
2022/05/25 03:27:57;;;;;;;13.68;9.02;;;;;;;;;;5060411;28;20033;-86
2022/05/25 03:30:23;;;;;;;15.73;10.10;;;;;;;;;;5060365;28;20029;-86
2022/05/25 03:32:49;;;;;;;14.30;9.13;;;;;;;;;;5063462;28;20078;-86
2022/05/25 03:35:15;;;;;;;13.30;8.95;;;;;;;;;;5060431;28;20016;-85
2022/05/25 03:37:41;;;;;;;11.50;8.90;;;;;;;;;;5058477;28;20056;-87
2022/05/25 03:40:09;;;;;;;12.13;9.45;;;;;;;;;;5063054;28;20114;-86
2022/05/25 03:42:37;;;;;;;11.38;8.57;;;;;;;;;;5059503;28;20028;-86
2022/05/25 03:45:04;;;;;;;12.05;8.85;;;;;;;;;;5066500;28;20074;-86
2022/05/25 03:47:31;;;;;;;14.05;9.68;;;;;;;;;;5062114;28;20029;-86
2022/05/25 03:49:56;;;;;;;12.93;9.30;;;;;;;;;;5063295;28;20036;-85
2022/05/25 03:52:23;;;;;;;11.65;9.18;;;;;;;;;;5063073;28;20078;-86
2022/05/25 03:54:49;;;;;;;14.95;8.70;;;;;;;;;;5058411;28;20053;-86
2022/05/25 03:57:15;;;;;;;13.57;10.85;;;;;;;;;;5060413;28;20110;-86
2022/05/25 03:59:40;;;;;;;16.58;11.02;;;;;;;;;;5065366;28;20039;-86
2022/05/25 04:02:05;;;;;;;16.08;10.55;;;;;;;;;;5066862;28;20083;-85
2022/05/25 04:04:31;;;;;;;20.27;15.45;;;;;;;;;;5072880;28;20021;-85
2022/05/25 04:06:57;;;;;;;18.90;15.48;;;;;;;;;;5069187;28;20075;-86
2022/05/25 04:09:22;;;;;;;17.33;14.07;;;;;;;;;;5072752;28;20028;-86
2022/05/25 04:11:48;;;;;;;19.00;12.05;;;;;;;;;;5067888;28;20028;-85
2022/05/25 04:14:15;;;;;;;20.38;16.40;;;;;;;;;;5066791;28;20054;-83
2022/05/25 04:16:45;;;;;;;22.60;15.73;;;;;;;;;;5074462;28;20027;-84
2022/05/25 04:19:10;;;;;;;20.77;18.48;;;;;;;;;;5059978;28;20030;-83
2022/05/25 04:21:36;;;;;;;26.52;20.08;;;;;;;;;;5065105;28;20040;-84
2022/05/25 04:24:02;;;;;;;25.48;19.55;;;;;;;;;;5069413;28;20021;-84
2022/05/25 04:26:30;;;;;;;23.38;19.20;;;;;;;;;;5067873;28;20021;-84
2022/05/25 04:29:02;;;;;;;23.60;19.75;;;;;;;;;;5060207;28;20024;-85
2022/05/25 04:31:28;;;;;;;28.58;19.58;;;;;;;;;;5062764;28;20029;-85
2022/05/25 04:33:54;;;;;;;25.35;19.50;;;;;;;;;;5065952;28;20028;-86
2022/05/25 04:36:20;;;;;;;22.40;18.55;;;;;;;;;;5063282;28;20154;-85
2022/05/25 04:38:46;;;;;;;25.25;19.55;;;;;;;;;;5068796;28;20116;-85
2022/05/25 04:41:18;;;;;;;25.90;18.27;;;;;;;;;;5060724;28;20071;-86
2022/05/25 04:43:44;;;;;;;25.05;19.42;;;;;;;;;;5063991;28;20071;-85
2022/05/25 04:46:11;;;;;;;22.92;17.67;;;;;;;;;;5068803;28;20060;-84
2022/05/25 04:48:37;;;;;;;22.15;18.58;;;;;;;;;;5067830;28;20020;-85
2022/05/25 04:51:04;;;;;;;24.63;18.05;;;;;;;;;;5068677;28;20098;-86
2022/05/25 04:53:30;;;;;;;20.63;16.67;;;;;;;;;;5070970;28;20051;-85
2022/05/25 04:58:43;;;;;;;24.50;17.65;;;;;;;;;;5068459;28;20499;-86
2022/05/25 05:01:12;;;;;;;19.60;16.45;;;;;;;;;;5070315;28;20044;-86
2022/05/25 05:03:38;;;;;;;22.58;17.20;;;;;;;;;;5062567;28;20021;-86
2022/05/25 05:06:06;;;;;;;21.95;15.68;;;;;;;;;;5061932;28;20025;-85
2022/05/25 05:08:32;;;;;;;21.67;17.30;;;;;;;;;;5060096;28;20029;-85
2022/05/25 05:11:05;;;;;;;20.65;15.70;;;;;;;;;;5065776;28;20542;-85
2022/05/25 05:13:30;;;;;;;17.88;15.38;;;;;;;;;;5068757;28;20040;-86
2022/05/25 05:16:04;;;;;;;22.90;16.92;;;;;;;;;;5067055;28;20028;-86
2022/05/25 05:18:29;;;;;;;20.48;16.92;;;;;;;;;;5059908;28;20086;-86
2022/05/25 05:24:59;;;;;;;19.05;16.73;;;;;;;;;;5061509;28;20052;-90
2022/05/25 05:31:16;;;;;;;24.02;19.13;;;;;;;;;;5061798;28;20024;-88
2022/05/25 05:34:00;;;;;;;28.02;19.63;;;;;;;;;;5095142;28;20044;-88
2022/05/25 05:37:23;;;;;;;;;;;;;;;;;;;;;
2022/05/25 05:40:32;;;;;;;25.17;19.60;;;;;;;;;;5065232;28;20029;-88
2022/05/25 05:46:38;;;;;;;29.67;19.52;;;;;;;;;;5070678;28;20056;-87
2022/05/25 05:49:08;;;;;;;24.58;19.63;;;;;;;;;;5058760;28;20095;-89
2022/05/25 05:51:35;;;;;;;28.42;19.55;;;;;;;;;;5073428;28;20464;-87
2022/05/25 05:54:02;;;;;;;22.17;18.63;;;;;;;;;;5077202;28;20025;-86
2022/05/25 05:56:28;;;;;;;23.70;19.77;;;;;;;;;;5063826;28;20024;-90
2022/05/25 05:58:53;;;;;;;25.80;19.88;;;;;;;;;;5068878;28;20027;-87
2022/05/25 06:01:19;;;;;;;23.58;19.23;;;;;;;;;;5063847;28;20055;-88
2022/05/25 06:03:45;;;;;;;24.65;18.52;;;;;;;;;;5064380;28;20032;-85
2022/05/25 06:06:10;;;;;;;23.33;18.48;;;;;;;;;;5069972;28;20078;-84
2022/05/25 06:08:36;;;;;;;22.92;18.38;;;;;;;;;;5074319;28;20055;-84
2022/05/25 06:11:01;;;;;;;24.15;19.30;;;;;;;;;;5065168;28;20074;-83
2022/05/25 06:13:27;;;;;;;25.00;19.08;;;;;;;;;;5061600;28;20461;-83
2022/05/25 06:21:23;;;;;;;23.83;18.73;;;;;;;;;;5064438;28;20056;-85
2022/05/25 06:23:49;;;;;;;25.58;18.95;;;;;;;;;;5064173;28;20024;-85
2022/05/25 06:26:15;;;;;;;23.20;18.63;;;;;;;;;;5067617;28;20090;-84
2022/05/25 06:28:42;;;;;;;24.15;19.27;;;;;;;;;;5064302;28;20103;-84
2022/05/25 06:31:07;;;;;;;22.35;18.27;;;;;;;;;;5064263;28;20078;-85
2022/05/25 06:33:33;;;;;;;31.25;17.48;;;;;;;;;;5067168;28;20032;-86
2022/05/25 06:36:20;;;;;;;22.15;17.08;;;;;;;;;;5063734;28;20027;-83
2022/05/25 06:38:46;;;;;;;23.17;17.65;;;;;;;;;;5063720;28;20090;-83
2022/05/25 06:41:13;;;;;;;22.00;17.00;;;;;;;;;;5067079;28;20024;-80
2022/05/25 06:43:39;;;;;;;24.83;17.27;;;;;;;;;;5063481;28;20029;-83
2022/05/25 06:46:06;;;;;;;24.08;15.65;;;;;;;;;;5067308;28;20048;-83
2022/05/25 06:48:32;;;;;;;18.00;15.02;;;;;;;;;;5064888;28;20024;-83
2022/05/25 06:50:57;;;;;;;19.67;15.88;;;;;;;;;;5067083;28;20169;-83
2022/05/25 06:53:22;;;;;;;23.35;16.23;;;;;;;;;;5070634;28;20036;-81
2022/05/25 06:55:48;;;;;;;22.20;15.20;;;;;;;;;;5069631;28;20052;-84
2022/05/25 06:58:13;;;;;;;20.38;14.05;;;;;;;;;;5067635;28;20101;-82
2022/05/25 07:00:39;;;;;;;21.25;14.75;;;;;;;;;;5065977;28;20028;-84
2022/05/25 07:03:06;;;;;;;24.17;14.45;;;;;;;;;;5072664;28;20052;-86
2022/05/25 07:05:33;;;;;;;19.48;14.20;;;;;;;;;;5071906;28;20021;-85
2022/05/25 07:07:59;;;;;;;16.13;13.93;;;;;;;;;;5066191;28;20030;-87
2022/05/25 07:10:24;;;;;;;19.13;13.85;;;;;;;;;;5065184;28;20092;-86
2022/05/25 07:12:50;;;;;;;15.48;12.88;;;;;;;;;;5066898;28;20383;-89
2022/05/25 07:15:15;;;;;;;16.92;13.32;;;;;;;;;;5074545;28;20024;-86
2022/05/25 07:17:42;;;;;;;19.75;14.60;;;;;;;;;;5067279;28;20024;-85
2022/05/25 07:20:09;;;;;;;21.25;14.90;;;;;;;;;;5063124;28;20097;-87
2022/05/25 07:22:36;;;;;;;20.92;14.40;;;;;;;;;;5067071;28;20059;-85
2022/05/25 07:25:01;;;;;;;20.23;13.68;;;;;;;;;;5060073;28;20020;-84
2022/05/25 07:27:27;;;;;;;15.65;12.13;;;;;;;;;;5066637;28;20036;-86
2022/05/25 07:29:53;;;;;;;19.52;13.18;;;;;;;;;;5067311;28;20524;-84
2022/05/25 07:32:20;;;;;;;20.08;13.23;;;;;;;;;;5071098;28;20024;-84
2022/05/25 07:34:50;;;;;;;19.00;13.48;;;;;;;;;;5064562;28;20033;-82
2022/05/25 07:37:23;;;;;;;13.77;11.35;;;;;;;;;;5067075;28;20074;-81
2022/05/25 07:40:02;;;;;;;16.73;12.30;;;;;;;;;;5069108;28;20044;-84
2022/05/25 07:42:29;;;;;;;22.75;11.70;;;;;;;;;;5063143;28;20151;-82
2022/05/25 07:44:57;;;;;;;14.82;10.45;;;;;;;;;;5062616;28;20074;-83
2022/05/25 07:47:25;;;;;;;27.88;11.27;;;;;;;;;;5061333;28;20016;-84
2022/05/25 07:49:50;;;;;;;16.02;10.95;;;;;;;;;;5070694;28;20528;-83
2022/05/25 07:52:16;;;;;;;12.13;10.45;;;;;;;;;;5066183;28;20159;-83
2022/05/25 07:54:45;;;;;;;24.20;10.63;;;;;;;;;;5066856;28;20039;-82
2022/05/25 07:57:11;;;;;;;13.02;10.07;;;;;;;;;;5063660;28;20401;-84
2022/05/25 07:59:38;;;;;;;16.23;10.70;;;;;;;;;;5065093;28;20032;-83
2022/05/25 08:07:55;;;;;;;14.25;8.93;;;;;;;;;;5065021;28;20043;-83
2022/05/25 08:10:24;;;;;;;14.23;9.07;;;;;;;;;;5077318;28;20036;-85
2022/05/25 08:12:53;;;;;;;13.63;9.48;;;;;;;;;;5076871;28;20828;-82
2022/05/25 08:15:18;;;;;;;13.50;9.63;;;;;;;;;;5066167;28;20366;-84
2022/05/25 08:17:44;;;;;;;16.88;9.40;;;;;;;;;;5067887;28;20066;-83
2022/05/25 08:20:10;;;;;;;12.18;9.13;;;;;;;;;;5062986;28;20039;-85
2022/05/25 08:22:39;;;;;;;11.00;8.68;;;;;;;;;;5064739;28;20025;-85
2022/05/25 08:25:06;;;;;;;14.20;9.38;;;;;;;;;;5064918;28;20031;-84
2022/05/25 08:27:33;;;;;;;11.75;8.98;;;;;;;;;;5071961;28;20062;-83
2022/05/25 08:29:58;;;;;;;15.73;9.18;;;;;;;;;;5065253;28;20130;-85
2022/05/25 08:32:24;;;;;;;15.32;9.10;;;;;;;;;;5073266;28;20062;-83
2022/05/25 08:34:49;;;;;;;15.05;10.27;;;;;;;;;;5064658;28;20032;-84
2022/05/25 08:37:16;;;;;;;14.02;8.80;;;;;;;;;;5068804;28;20150;-83
2022/05/25 08:39:41;;;;;;;13.82;9.13;;;;;;;;;;5069555;28;20056;-84
2022/05/25 08:42:14;;;;;;;17.13;9.27;;;;;;;;;;5073917;28;20045;-82
2022/05/25 08:44:42;;;;;;;11.52;9.05;;;;;;;;;;5073405;28;20035;-85
2022/05/25 08:47:10;;;;;;;15.55;9.85;;;;;;;;;;5062432;28;20021;-83
2022/05/25 08:49:38;;;;;;;14.73;9.27;;;;;;;;;;5069328;28;20037;-83
2022/05/25 08:52:15;;;;;;;12.63;9.00;;;;;;;;;;5065987;28;20032;-85
2022/05/25 08:54:40;;;;;;;12.60;10.05;;;;;;;;;;5067892;28;20477;-83
2022/05/25 08:57:15;;;;;;;12.35;9.77;;;;;;;;;;5064755;28;20031;-84
2022/05/25 08:59:49;;;;;;;12.50;8.70;;;;;;;;;;5065071;28;20028;-83
2022/05/25 09:02:17;;;;;;;17.13;9.95;;;;;;;;;;5069502;28;20044;-84
2022/05/25 09:04:53;;;;;;;15.35;9.60;;;;;;;;;;5065158;28;20070;-83
2022/05/25 09:07:29;;;;;;;13.63;9.07;;;;;;;;;;5068166;28;20071;-84
2022/05/25 09:09:55;;;;;;;14.23;8.45;;;;;;;;;;5060869;28;20435;-85
2022/05/25 09:12:42;;;;;;;12.32;9.55;;;;;;;;;;5060964;28;20025;-83
2022/05/25 09:15:19;;;;;;;15.95;9.38;;;;;;;;;;5064334;28;20476;-83
2022/05/25 09:18:02;;;;;;;14.85;9.52;;;;;;;;;;5067887;28;20383;-85
2022/05/25 09:20:42;;;;;;;19.95;9.30;;;;;;;;;;5061667;28;20373;-83
2022/05/25 09:23:08;;;;;;;15.52;9.27;;;;;;;;;;5062506;28;20021;-82
2022/05/25 09:25:34;;;;;;;14.18;8.63;;;;;;;;;;5068157;28;20035;-85
2022/05/25 09:28:07;;;;;;;13.77;8.52;;;;;;;;;;5062599;28;20021;-82
2022/05/25 09:30:40;;;;;;;14.73;9.15;;;;;;;;;;5056369;28;20017;-85
2022/05/25 09:33:24;;;;;;;14.13;9.27;;;;;;;;;;5066376;28;20036;-83
2022/05/25 09:35:56;;;;;;;17.33;9.40;;;;;;;;;;5061407;28;20036;-83
2022/05/25 09:38:31;;;;;;;14.38;9.52;;;;;;;;;;5063975;28;20147;-82
2022/05/25 09:41:04;;;;;;;11.90;8.82;;;;;;;;;;5075529;28;20122;-85
2022/05/25 09:43:31;;;;;;;17.15;9.27;;;;;;;;;;5071352;28;20107;-85
2022/05/25 09:46:03;;;;;;;11.75;8.65;;;;;;;;;;5074158;28;20442;-82
2022/05/25 09:48:36;;;;;;;13.50;9.07;;;;;;;;;;5076550;28;20063;-82
2022/05/25 09:51:02;;;;;;;12.18;9.10;;;;;;;;;;5072454;28;20032;-84
2022/05/25 09:53:39;;;;;;;12.50;9.18;;;;;;;;;;5067608;28;20035;-83
2022/05/25 09:56:29;;;;;;;13.73;8.93;;;;;;;;;;5078011;28;20437;-82
2022/05/25 09:58:57;;;;;;;17.63;9.07;;;;;;;;;;5077744;28;20032;-80
2022/05/25 10:01:28;;;;;;;19.55;9.70;;;;;;;;;;5078876;28;20037;-83
2022/05/25 10:03:54;;;;;;;33.00;10.80;;;;;;;;;;5073952;28;20016;-84
2022/05/25 10:06:32;;;;;;;14.73;8.13;;;;;;;;;;5069171;28;20029;-81
2022/05/25 10:09:21;;;;;;;17.25;8.52;;;;;;;;;;5071460;28;20029;-83
2022/05/25 10:11:50;;;;;;;10.20;8.98;;;;;;;;;;5063454;28;20365;-81
2022/05/25 10:14:35;;;;;;;31.73;10.13;;;;;;;;;;5075958;28;20069;-82
2022/05/25 10:17:10;;;;;;;13.85;8.63;;;;;;;;;;5076332;28;20495;-84
2022/05/25 10:19:53;;;;;;;11.50;8.60;;;;;;;;;;5065609;28;20031;-84
2022/05/25 10:22:44;;;;;;;14.10;9.10;;;;;;;;;;5070962;28;20029;-82
2022/05/25 10:25:25;;;;;;;13.50;8.75;;;;;;;;;;5074080;28;20494;-84
2022/05/25 10:27:51;;;;;;;16.92;8.88;;;;;;;;;;5065722;28;20059;-82
2022/05/25 10:39:32;;;;;;;18.88;9.20;;;;;;;;;;5065038;28;20515;-86
2022/05/25 10:42:00;;;;;;;14.82;9.00;;;;;;;;;;5069307;28;20519;-87
2022/05/25 10:44:32;;;;;;;12.73;9.23;;;;;;;;;;5066366;28;20042;-84
2022/05/25 10:46:58;;;;;;;12.43;8.52;;;;;;;;;;5072538;28;20028;-87
2022/05/25 10:49:26;;;;;;;14.90;8.45;;;;;;;;;;5067145;28;20028;-83
2022/05/25 10:52:04;;;;;;;13.70;8.25;;;;;;;;;;5067822;28;20511;-84
2022/05/25 10:54:53;;;;;;;11.90;8.35;;;;;;;;;;5068528;28;20032;-89
2022/05/25 10:57:28;;;;;;;12.80;7.97;;;;;;;;;;5070152;28;20025;-87
2022/05/25 11:00:03;;;;;;;34.28;10.40;;;;;;;;;;5065298;28;20096;-85
2022/05/25 11:03:10;;;;;;;18.63;9.00;;;;;;;;;;5073064;28;20404;-87
2022/05/25 11:06:15;;;;;;;32.55;11.15;;;;;;;;;;5048016;28;20509;-85
2022/05/25 11:08:55;;;;;;;18.33;8.30;;;;;;;;;;5070599;28;20056;-86
2022/05/25 11:11:58;;;;;;;13.27;7.90;;;;;;;;;;5075176;28;20032;-87
2022/05/25 11:14:32;;;;;;;12.10;7.95;;;;;;;;;;5067429;28;20041;-86
2022/05/25 11:17:10;;;;;;;10.25;7.35;;;;;;;;;;5070448;28;20032;-87
2022/05/25 11:19:49;;;;;;;15.57;8.35;;;;;;;;;;5105692;27;20025;-88
2022/05/25 11:22:20;;;;;;;;;;;;;;;;;;5061139;28;20142;-85
2022/05/25 11:25:03;;;;;;;15.43;8.30;;;;;;;;;;5060867;28;19913;-84
2022/05/25 11:27:35;;;;;;;15.23;7.75;;;;;;;;;;5067776;28;20032;-85
2022/05/25 11:30:03;;;;;;;11.20;7.13;;;;;;;;;;5068740;28;20036;-86
2022/05/25 11:32:47;;;;;;;13.33;8.27;;;;;;;;;;5064572;28;20025;-84
2022/05/25 11:35:39;;;;;;;9.95;6.90;;;;;;;;;;5064456;28;20040;-87
2022/05/25 11:38:45;;;;;;;14.48;7.85;;;;;;;;;;5074004;28;20473;-86
2022/05/25 11:41:28;;;;;;;12.55;7.32;;;;;;;;;;5062338;28;20084;-84
2022/05/25 11:44:26;;;;;;;14.65;6.82;;;;;;;;;;5067676;28;20032;-86
2022/05/25 11:46:51;;;;;;;11.10;5.95;;;;;;;;;;5051823;28;20072;-85
2022/05/25 11:49:42;;;;;;;12.07;6.10;;;;;;;;;;5065864;28;20462;-86
2022/05/25 11:52:14;;;;;;;11.93;5.82;;;;;;;;;;5063718;28;20032;-86
2022/05/25 11:55:11;;;;;;;14.57;6.22;;;;;;;;;;5074818;28;20032;-88
2022/05/25 11:57:43;;;;;;;12.07;6.53;;;;;;;;;;5068994;28;20064;-84
2022/05/25 12:00:12;;;;;;;10.57;5.90;;;;;;;;;;5068479;28;20040;-84
2022/05/25 12:03:03;;;;;;;13.93;5.97;;;;;;;;;;5064277;28;20045;-86
2022/05/25 12:05:53;;;;;;;11.68;5.40;;;;;;;;;;5070789;28;20055;-87
2022/05/25 12:08:50;;;;;;;10.80;5.53;;;;;;;;;;5068246;28;20103;-85
2022/05/25 12:11:29;;;;;;;11.93;4.40;;;;;;;;;;5057449;28;20032;-92
2022/05/25 12:14:13;;;;;;;10.55;3.20;;;;;;;;;;5057768;28;20040;-88
2022/05/25 12:16:42;;;;;;;10.30;3.72;;;;;;;;;;5059637;28;20028;-87
2022/05/25 12:19:13;;;;;;;8.70;3.20;;;;;;;;;;5062171;28;20028;-89
2022/05/25 12:22:04;;;;;;;11.48;3.92;;;;;;;;;;5067918;28;20025;-87
2022/05/25 12:24:40;;;;;;;11.75;3.50;;;;;;;;;;5063990;28;20396;-88
2022/05/25 12:27:14;;;;;;;9.27;3.30;;;;;;;;;;5060769;28;20028;-88
2022/05/25 12:29:56;;;;;;;17.95;5.30;;;;;;;;;;5064428;28;20029;-88
2022/05/25 12:32:22;;;;;;;12.13;4.07;;;;;;;;;;5072216;28;20048;-84
2022/05/25 12:34:51;;;;;;;7.43;3.13;;;;;;;;;;5069650;28;20059;-85
2022/05/25 12:37:29;;;;;;;9.30;3.92;;;;;;;;;;5066077;28;20036;-83
2022/05/25 12:39:58;;;;;;;13.63;4.43;;;;;;;;;;5059742;28;20029;-87
2022/05/25 12:42:24;;;;;;;5.65;3.00;;;;;;;;;;5066866;28;20485;-87
2022/05/25 12:50:54;;;;;;;8.65;2.75;;;;;;;;;;5066781;28;20032;-88
2022/05/25 12:53:43;;;;;;;10.02;3.30;;;;;;;;;;5074219;28;20024;-87
2022/05/25 12:56:19;;;;;;;11.15;3.15;;;;;;;;;;5068735;28;20028;-86
2022/05/25 12:58:47;;;;;;;8.15;3.20;;;;;;;;;;5077326;28;20050;-87
2022/05/25 13:01:22;;;;;;;8.18;3.08;;;;;;;;;;5072881;28;20071;-85
2022/05/25 13:03:47;;;;;;;9.32;3.50;;;;;;;;;;5069146;28;20033;-87
2022/05/25 13:06:33;;;;;;;8.90;3.35;;;;;;;;;;5065313;28;20392;-89
2022/05/25 13:09:24;;;;;;;6.65;2.50;;;;;;;;;;5067948;28;20028;-87
2022/05/25 13:11:52;;;;;;;9.90;3.42;;;;;;;;;;5068352;28;20032;-86
2022/05/25 13:14:17;;;;;;;9.75;3.53;;;;;;;;;;5077764;28;20381;-89
2022/05/25 13:16:46;;;;;;;8.07;3.00;;;;;;;;;;5070888;28;20035;-87
2022/05/25 13:19:33;;;;;;;12.13;3.75;;;;;;;;;;5068556;28;20036;-86
2022/05/25 13:22:09;;;;;;;10.75;3.58;;;;;;;;;;5063970;28;20064;-85
2022/05/25 13:24:52;;;;;;;8.43;3.17;;;;;;;;;;5065895;28;20493;-88
2022/05/25 13:27:28;;;;;;;12.60;3.67;;;;;;;;;;5074459;28;20085;-82
2022/05/25 13:30:24;;;;;;;7.90;3.05;;;;;;;;;;5074246;28;20119;-82
2022/05/25 13:33:02;;;;;;;9.00;3.40;;;;;;;;;;5071246;28;20029;-81
2022/05/25 13:35:33;;;;;;;7.25;3.08;;;;;;;;;;5068023;28;20093;-82
2022/05/25 13:38:23;;;;;;;6.03;3.10;;;;;;;;;;5061366;28;20021;-84
2022/05/25 13:40:57;;;;;;;9.23;3.92;;;;;;;;;;5068627;28;20028;-81
2022/05/25 13:43:51;;;;;;;8.70;3.95;;;;;;;;;;5073447;28;20031;-82
2022/05/25 13:46:31;;;;;;;10.10;3.10;;;;;;;;;;5064342;28;20476;-83
2022/05/25 13:48:58;;;;;;;8.77;3.33;;;;;;;;;;5072582;28;20023;-82
2022/05/25 13:51:24;;;;;;;6.07;3.22;;;;;;;;;;5070977;28;20016;-82
2022/05/25 13:53:51;;;;;;;9.13;3.05;;;;;;;;;;5076228;28;20030;-82
2022/05/25 13:56:44;;;;;;;6.88;3.00;;;;;;;;;;5069718;28;20048;-82
2022/05/25 13:59:11;;;;;;;12.60;3.33;;;;;;;;;;5069584;28;20055;-82
2022/05/25 14:01:37;;;;;;;8.13;3.03;;;;;;;;;;5076304;28;20041;-79
2022/05/25 14:04:08;;;;;;;13.85;3.95;;;;;;;;;;5079748;28;20025;-82
2022/05/25 14:06:44;;;;;;;35.45;6.68;;;;;;;;;;5078767;28;20480;-81
2022/05/25 14:11:55;;;;;;;17.27;4.35;;;;;;;;;;5074048;28;20099;-81
2022/05/25 14:14:26;;;;;;;8.18;3.30;;;;;;;;;;5066162;28;20033;-83
2022/05/25 14:16:55;;;;;;;10.02;3.55;;;;;;;;;;5071275;28;20032;-81
2022/05/25 14:19:29;;;;;;;18.75;3.95;;;;;;;;;;5069606;28;20036;-83
2022/05/25 14:22:00;;;;;;;11.32;2.42;;;;;;;;;;5072213;28;20032;-82
2022/05/25 14:24:32;;;;;;;10.35;2.80;;;;;;;;;;5078542;28;20021;-81
2022/05/25 14:27:07;;;;;;;9.10;2.95;;;;;;;;;;5076603;28;20032;-84
2022/05/25 14:29:37;;;;;;;7.80;2.83;;;;;;;;;;5064188;28;20032;-82
2022/05/25 14:32:21;;;;;;;8.40;2.95;;;;;;;;;;5073671;28;20019;-82
2022/05/25 14:34:49;;;;;;;9.38;3.13;;;;;;;;;;5068373;28;20037;-81
2022/05/25 14:37:17;;;;;;;8.10;3.20;;;;;;;;;;5071395;28;20031;-81
2022/05/25 14:39:43;;;;;;;10.50;3.42;;;;;;;;;;5068850;28;20029;-81
2022/05/25 14:42:11;;;;;;;11.15;2.92;;;;;;;;;;5076514;28;20024;-80
2022/05/25 14:44:51;;;;;;;11.20;3.30;;;;;;;;;;5081133;28;20020;-82
2022/05/25 14:47:31;;;;;;;14.50;3.63;;;;;;;;;;5077254;28;20388;-81
2022/05/25 14:50:21;;;;;;;36.22;7.82;;;;;;;;;;5075854;28;20024;-82
2022/05/25 14:53:13;;;;;;;10.38;3.08;;;;;;;;;;5078593;28;20025;-82
2022/05/25 14:55:46;;;;;;;9.43;3.10;;;;;;;;;;5065255;28;20049;-84
2022/05/25 14:58:17;;;;;;;8.60;2.95;;;;;;;;;;5067682;28;20078;-82
2022/05/25 15:01:18;;;;;;;8.07;3.40;;;;;;;;;;5075116;28;20035;-81
2022/05/25 15:03:47;;;;;;;8.82;2.65;;;;;;;;;;5035290;28;20084;-82
2022/05/25 15:06:16;;;;;;;9.88;3.30;;;;;;;;;;5035068;28;20504;-80
2022/05/25 15:09:08;;;;;;;15.23;3.45;;;;;;;;;;5037480;28;20037;-83
2022/05/25 15:11:44;;;;;;;9.85;3.15;;;;;;;;;;5041582;28;20044;-82
2022/05/25 15:20:16;;;;;;;13.07;3.63;;;;;;;;;;5037543;28;20051;-80
2022/05/25 15:22:47;;;;;;;9.85;2.97;;;;;;;;;;5034681;28;20534;-82
2022/05/25 15:25:40;;;;;;;7.45;2.80;;;;;;;;;;5033292;28;20029;-81
2022/05/25 15:28:10;;;;;;;10.07;3.33;;;;;;;;;;5032343;28;20017;-85
2022/05/25 15:30:48;;;;;;;10.18;3.08;;;;;;;;;;5028102;28;20029;-82
2022/05/25 15:33:19;;;;;;;9.68;3.45;;;;;;;;;;5032425;28;20017;-82
2022/05/25 15:35:45;;;;;;;12.93;3.10;;;;;;;;;;5032856;28;20385;-84
2022/05/25 15:38:11;;;;;;;9.15;2.78;;;;;;;;;;5033644;28;20775;-81
2022/05/25 15:40:43;;;;;;;8.52;2.92;;;;;;;;;;5034566;28;20534;-81
2022/05/25 15:43:10;;;;;;;6.40;3.13;;;;;;;;;;5029468;28;20044;-82
2022/05/25 15:45:38;;;;;;;8.18;4.18;;;;;;;;;;5033214;28;20056;-82
2022/05/25 15:48:05;;;;;;;10.05;3.40;;;;;;;;;;5038227;28;20112;-80
2022/05/25 15:50:37;;;;;;;11.48;3.25;;;;;;;;;;5038357;28;20535;-82
2022/05/25 15:53:03;;;;;;;9.18;3.25;;;;;;;;;;5034265;28;20037;-83
2022/05/25 15:55:29;;;;;;;48.70;14.80;;;;;;;;;;5032864;28;20025;-85